Weather observations for the past three days for
Hermiston, Hermiston Municipal Airport
Imperial (Metric)
Date Time (pdt) Wind (mph) Vis. (mi.) Weather Sky Cond. Temperature (ºF) Relative Humidity Wind Chill (°F) Heat Index (°F) Pressure Precipitation (in)
Air Dwpt 6 hour altimeter (in) sea level (mb) 1 hr 3 hr 6 hr
Max. Min.
02 14:53 E 5 10.00 Fair CLR 80.1 46 30% 79 29.88 1011.5
02 13:53 Calm 10.00 Fair CLR 77 46 33% 78 29.9 1012.1
02 12:53 S 5 10.00 Fair CLR 75 48 39% 77 29.92 1012.7
02 11:53 NE 3 10.00 Fair CLR 75 46.9 37% 77 29.93 1013.3
02 10:53 NE 5 10.00 Fair CLR 72 46.9 72 46.9 41% 29.94 1013.4
02 09:53 E 3 10.00 Fair CLR 68 46.9 47% 29.94 1013.5
02 08:53 Calm 10.00 Fair CLR 64 48 56% 29.94 1013.5
02 07:53 W 3 10.00 Fair CLR 59 46.9 64% 29.93 1013.2
02 06:53 S 3 10.00 Fair CLR 52 48.9 89% 29.92 1013.0
02 05:53 S 3 10.00 Fair CLR 48.9 46 90% 29.91 1012.4
02 04:53 E 6 10.00 Fair CLR 50 46.9 62.1 48.9 89% 48 29.9 1012.1
02 03:53 S 5 10.00 Fair CLR 53.1 45 74% 29.9 1011.9
02 02:53 Calm 10.00 Fair CLR 55.9 44.1 65% 29.89 1011.7
02 01:53 E 9 10.00 Fair CLR 55.9 46 70% 29.89 1011.8
02 00:53 E 6 10.00 Fair CLR 57 46.9 69% 29.89 1011.8
01 23:53 E 7 10.00 Fair CLR 57 46 67% 29.89 1011.8
01 22:53 Calm 10.00 Fair CLR 62.1 46 82 57 56% 29.89 1011.7
01 21:53 SE 5 10.00 Fair CLR 61 46.9 60% 29.88 1011.6
01 20:53 E 10 10.00 Fair CLR 64.9 46.9 52% 29.88 1011.3
01 19:53 NE 8 10.00 Fair CLR 70 44.1 39% 29.87 1011.1
01 18:53 NE 8 10.00 Fair CLR 75.9 44.1 32% 77 29.87 1011.3
01 17:53 NE 9 10.00 Fair CLR 79 39.9 25% 78 29.89 1011.8
01 16:53 N 10 10.00 Fair CLR 82 37.9 82.9 68 21% 80 29.89 1012.0
01 15:53 NE 13 10.00 Fair CLR 82 39.9 22% 80 29.91 1012.7
01 14:53 NE 10 10.00 Fair CLR 81 41 24% 79 29.94 1013.5
01 13:53 N 8 10.00 Fair CLR 80.1 41 25% 79 29.97 1014.5
01 12:53 Calm 10.00 Fair CLR 75.9 42.1 30% 77 29.99 1015.3
01 11:53 N 7 10.00 Fair CLR 72 41 33% 30.01 1015.9
01 10:53 E 5 10.00 Fair CLR 68 42.1 68 37 39% 30.02 1016.5
01 09:53 Calm 10.00 Fair CLR 63 43 48% 30.04 1017.0
01 08:53 Calm 10.00 Fair CLR 57.9 43 58% 30.05 1017.4
01 07:53 S 5 10.00 Fair CLR 53.1 44.1 72% 30.05 1017.2
01 06:53 Calm 10.00 Fair CLR 45 43 93% 30.04 1016.9
01 05:53 Calm 10.00 Fair CLR 37.9 37.9 100% 30.02 1016.4
01 04:53 Calm 10.00 Fair CLR 41 39 52 39.9 93% 30.02 1016.5
01 03:53 SE 6 10.00 Fair CLR 39.9 39 97% 36 30.02 1016.4
01 02:53 Calm 10.00 Fair CLR 43 41 93% 30.02 1016.5
01 01:53 Calm 10.00 Fair CLR 46 42.1 86% 30.02 1016.5
01 00:53 E 6 10.00 Fair CLR 46 42.1 86% 44 30.02 1016.5
30 23:53 SE 7 10.00 Fair CLR 50 41 71% 48 30.02 1016.3
30 22:53 SE 6 10.00 Fair CLR 52 43 78.1 51.1 72% 30.02 1016.4
30 21:53 S 7 10.00 Fair CLR 53.1 44.1 72% 30.02 1016.5
30 20:53 E 3 10.00 Fair CLR 60.1 39 46% 30 1015.9
30 19:53 NE 5 10.00 Fair CLR 66 34 30% 30 1015.6
30 18:53 NE 5 10.00 Fair CLR 73.9 33.1 22% 30 1015.8
30 17:53 Vrbl 3 10.00 Fair CLR 77 33.1 20% 77 30.01 1016.0
30 16:53 SE 5 10.00 Fair CLR 77 34 78.1 64 21% 77 30.02 1016.2
30 15:53 Vrbl 5 10.00 Fair CLR 77 30 18% 77 30.04 1016.9
30 14:53 Vrbl 6 10.00 Fair CLR 75.9 35.1 23% 77 30.06 1017.8
30 13:53 N 7 10.00 Fair CLR 73.9 42.1 32% 30.08 1018.5
30 12:53 Vrbl 5 10.00 Fair CLR 72 45 38% 30.11 1019.3
30 11:53 N 6 10.00 Fair CLR 68 41 38% 30.13 1020.0
30 10:53 N 5 10.00 Fair CLR 64 43 64 36 46% 30.15 1020.8
30 09:53 Vrbl 3 10.00 Fair CLR 60.1 41 50% 30.16 1021.2
30 08:53 Calm 10.00 Fair CLR 54 42.1 64% 30.18 1021.9
30 07:53 W 3 10.00 Fair CLR 48.9 41 74% 30.18 1021.9
30 06:53 SE 5 10.00 Fair CLR 43 39.9 89% 41 30.17 1021.6
30 05:53 S 3 10.00 Fair CLR 37.9 36 93% 30.16 1021.0
30 04:53 SE 3 10.00 Fair CLR 37.9 37.9 48.9 37 100% 30.15 1021.0
30 03:53 E 3 10.00 Fair CLR 39.9 37.9 93% 30.15 1020.9
30 02:53 Calm 10.00 Fair CLR 41 39 93% 30.15 1020.8
30 01:53 Calm 10.00 Fair CLR 43 39 86% 30.15 1020.9
30 00:53 SE 3 10.00 Fair CLR 44.1 39.9 85% 30.15 1020.9
29 23:53 S 8 10.00 Fair CLR 48 41 77% 45 30.15 1020.7
29 22:53 S 6 10.00 Fair CLR 48 42.1 72 48 80% 46 30.14 1020.5
29 21:53 SE 5 10.00 Fair CLR 55 39.9 57% 30.14 1020.7
29 20:53 N 3 10.00 Fair CLR 55.9 39.9 55% 30.13 1020.3
29 19:53 NE 5 10.00 NULL NULL 64.9 37.9 37% 30.12 1019.8
29 18:53 NE 8 10.00 Fair CLR 70 36 29% 30.12 1019.8
29 17:53 NE 8 10.00 Fair CLR 72 37.9 29% 30.13 1020.1
29 16:53 NE 10 G 21 10.00 Fair CLR 71.1 37 72 59 29% 30.13 1020.1
29 15:53 NE 7 10.00 Fair CLR 71.1 36 28% 30.15 1020.6
Date Time (pdt) Wind (mph) Vis. (mi.) Weather Sky Cond. Air Dwpt Max. Min. Relative Humidity Wind Chill (°F) Heat Index (°F) altimeter (in) sea level (mb) 1 hr 3 hr 6 hr
6 hour
Temperature (ºF) Pressure Precipitation (in)